This is the latest recevied weather packets stored in our database for station/object W5ITZ. If no packets are shown the sender has not sent any weather packets the latest 10 day(s).
| Time | Temp. | Humidity | Pressure | Rain* | Wind** | Luminosity | Snow |
|---|---|---|---|---|---|---|---|
| 1778099114 | 30° C | 76% | 1008.2 hPa | 0 mm | - | 832 W/m² | - |
| 1778098810 | 30° C | 77% | 1008.3 hPa | 0 mm | - | 884 W/m² | - |
| 1778098509 | 30° C | 77% | 1008.5 hPa | 0 mm | - | 837 W/m² | - |
| 1778098205 | 29.44° C | 78% | 1008.5 hPa | 0 mm | - | 876 W/m² | - |
| 1778097901 | 29.44° C | 80% | 1008.4 hPa | 0 mm | - | 846 W/m² | - |
| 1778097597 | 28.89° C | 80% | 1008.7 hPa | 0 mm | - | 858 W/m² | - |
| 1778097295 | 28.89° C | 80% | 1008.8 hPa | 0 mm | - | 649 W/m² | - |
| 1778096991 | 28.33° C | 82% | 1008.9 hPa | 0 mm | - | 522 W/m² | - |
| 1778096688 | 28.89° C | 80% | 1009 hPa | 0 mm | - | 498 W/m² | - |
| 1778096385 | 28.89° C | 79% | 1009 hPa | 0 mm | - | 440 W/m² | - |
| 1778096082 | 28.89° C | 81% | 1009.1 hPa | 0 mm | - | 579 W/m² | - |
| 1778095779 | 28.33° C | 82% | 1009.1 hPa | 0 mm | - | 894 W/m² | - |
| 1778095476 | 28.33° C | 82% | 1009.1 hPa | 0 mm | - | 666 W/m² | - |
| 1778095172 | 28.33° C | 83% | 1009.5 hPa | 0 mm | - | 334 W/m² | - |
| 1778094869 | 28.33° C | 82% | 1009.5 hPa | 0 mm | - | 574 W/m² | - |
| 1778094566 | 27.78° C | 83% | 1009.4 hPa | 0 mm | - | 698 W/m² | - |
| 1778094262 | 27.78° C | 82% | 1009.5 hPa | 0 mm | - | 381 W/m² | - |
| 1778093959 | 28.33° C | 82% | 1009.6 hPa | 0 mm | - | 435 W/m² | - |
| 1778093657 | 28.33° C | 82% | 1009.6 hPa | 0 mm | - | 645 W/m² | - |
| 1778093354 | 28.33° C | 82% | 1009.6 hPa | 0 mm | - | 735 W/m² | - |
| 1778093051 | 27.78° C | 83% | 1009.6 hPa | 0 mm | - | 760 W/m² | - |
| 1778092748 | 27.22° C | 86% | 1009.7 hPa | 0 mm | - | 390 W/m² | - |
| 1778092443 | 27.22° C | 86% | 1009.9 hPa | 0 mm | - | 257 W/m² | - |
| 1778092140 | 27.22° C | 86% | 1010 hPa | 0 mm | - | 293 W/m² | - |
| 1778091837 | 27.22° C | 85% | 1010.1 hPa | 0 mm | - | 237 W/m² | - |
* Rain latest hour (hover to see other rain measurements)
** Current wind speed in m/s (hover to see current wind gust speed)